sensor_id;sensor_type;location;lat;lon;timestamp;P1;durP1;ratioP1;P2;durP2;ratioP2
58685;SDS011;44465;53.206;-6.106;2023-03-11T00:00:24;4.10;;;2.25;;
58685;SDS011;44465;53.206;-6.106;2023-03-11T00:02:53;3.13;;;2.42;;
58685;SDS011;44465;53.206;-6.106;2023-03-11T00:10:17;2.63;;;2.00;;
58685;SDS011;44465;53.206;-6.106;2023-03-11T00:12:44;2.83;;;2.17;;
58685;SDS011;44465;53.206;-6.106;2023-03-11T00:15:10;4.70;;;2.47;;
58685;SDS011;44465;53.206;-6.106;2023-03-11T00:17:36;2.88;;;2.30;;
58685;SDS011;44465;53.206;-6.106;2023-03-11T00:20:02;2.20;;;2.00;;
58685;SDS011;44465;53.206;-6.106;2023-03-11T00:22:28;3.53;;;2.10;;
58685;SDS011;44465;53.206;-6.106;2023-03-11T00:24:54;2.63;;;2.10;;
58685;SDS011;44465;53.206;-6.106;2023-03-11T00:27:20;2.83;;;2.00;;
58685;SDS011;44465;53.206;-6.106;2023-03-11T00:29:45;1.88;;;1.77;;
58685;SDS011;44465;53.206;-6.106;2023-03-11T00:32:11;2.70;;;1.75;;
58685;SDS011;44465;53.206;-6.106;2023-03-11T00:34:36;3.17;;;2.05;;
58685;SDS011;44465;53.206;-6.106;2023-03-11T00:37:02;2.42;;;1.98;;
58685;SDS011;44465;53.206;-6.106;2023-03-11T00:39:28;2.08;;;1.70;;
58685;SDS011;44465;53.206;-6.106;2023-03-11T00:41:54;2.55;;;2.00;;
58685;SDS011;44465;53.206;-6.106;2023-03-11T00:44:20;2.25;;;1.90;;
58685;SDS011;44465;53.206;-6.106;2023-03-11T00:46:46;2.85;;;1.95;;
58685;SDS011;44465;53.206;-6.106;2023-03-11T00:49:12;2.78;;;2.10;;
58685;SDS011;44465;53.206;-6.106;2023-03-11T00:51:37;2.30;;;2.00;;
58685;SDS011;44465;53.206;-6.106;2023-03-11T00:54:03;2.63;;;1.90;;
58685;SDS011;44465;53.206;-6.106;2023-03-11T00:56:29;3.30;;;2.10;;
58685;SDS011;44465;53.206;-6.106;2023-03-11T00:58:55;3.10;;;1.92;;
58685;SDS011;44465;53.206;-6.106;2023-03-11T01:01:21;2.30;;;1.80;;
58685;SDS011;44465;53.206;-6.106;2023-03-11T01:03:46;2.13;;;1.92;;
58685;SDS011;44465;53.206;-6.106;2023-03-11T01:06:12;2.95;;;1.83;;
58685;SDS011;44465;53.206;-6.106;2023-03-11T01:08:38;2.85;;;2.10;;
58685;SDS011;44465;53.206;-6.106;2023-03-11T01:11:04;2.63;;;2.00;;
58685;SDS011;44465;53.206;-6.106;2023-03-11T01:13:31;2.45;;;1.95;;
58685;SDS011;44465;53.206;-6.106;2023-03-11T01:15:57;1.90;;;1.70;;
58685;SDS011;44465;53.206;-6.106;2023-03-11T01:18:23;2.80;;;1.95;;
58685;SDS011;44465;53.206;-6.106;2023-03-11T01:20:50;2.03;;;1.67;;
58685;SDS011;44465;53.206;-6.106;2023-03-11T01:23:16;1.80;;;1.70;;
58685;SDS011;44465;53.206;-6.106;2023-03-11T01:25:43;2.47;;;1.98;;
58685;SDS011;44465;53.206;-6.106;2023-03-11T01:28:09;2.80;;;1.77;;
58685;SDS011;44465;53.206;-6.106;2023-03-11T01:30:36;2.20;;;1.90;;
58685;SDS011;44465;53.206;-6.106;2023-03-11T01:33:03;1.83;;;1.73;;
58685;SDS011;44465;53.206;-6.106;2023-03-11T01:35:32;1.92;;;1.80;;
58685;SDS011;44465;53.206;-6.106;2023-03-11T01:37:58;2.00;;;1.58;;
58685;SDS011;44465;53.206;-6.106;2023-03-11T01:40:34;1.98;;;1.77;;
58685;SDS011;44465;53.206;-6.106;2023-03-11T01:43:35;2.20;;;2.00;;
58685;SDS011;44465;53.206;-6.106;2023-03-11T01:48:29;1.70;;;1.60;;
58685;SDS011;44465;53.206;-6.106;2023-03-11T01:50:55;2.08;;;1.83;;
58685;SDS011;44465;53.206;-6.106;2023-03-11T01:53:21;1.83;;;1.63;;
58685;SDS011;44465;53.206;-6.106;2023-03-11T01:55:48;2.03;;;1.73;;
58685;SDS011;44465;53.206;-6.106;2023-03-11T01:58:16;3.35;;;2.00;;
58685;SDS011;44465;53.206;-6.106;2023-03-11T02:00:44;1.55;;;1.40;;
58685;SDS011;44465;53.206;-6.106;2023-03-11T02:03:16;2.30;;;1.50;;
58685;SDS011;44465;53.206;-6.106;2023-03-11T02:05:48;3.08;;;1.98;;
58685;SDS011;44465;53.206;-6.106;2023-03-11T02:08:15;3.13;;;1.70;;
58685;SDS011;44465;53.206;-6.106;2023-03-11T02:10:41;1.95;;;1.70;;
58685;SDS011;44465;53.206;-6.106;2023-03-11T02:13:09;2.58;;;1.90;;
58685;SDS011;44465;53.206;-6.106;2023-03-11T02:15:35;2.47;;;2.00;;
58685;SDS011;44465;53.206;-6.106;2023-03-11T02:18:04;3.00;;;1.73;;
58685;SDS011;44465;53.206;-6.106;2023-03-11T02:23:29;1.30;;;1.30;;
58685;SDS011;44465;53.206;-6.106;2023-03-11T02:28:45;2.05;;;1.80;;
58685;SDS011;44465;53.206;-6.106;2023-03-11T02:33:38;2.13;;;1.67;;
58685;SDS011;44465;53.206;-6.106;2023-03-11T02:36:25;1.85;;;1.70;;
58685;SDS011;44465;53.206;-6.106;2023-03-11T02:38:56;1.90;;;1.75;;
58685;SDS011;44465;53.206;-6.106;2023-03-11T02:41:22;1.70;;;1.60;;
58685;SDS011;44465;53.206;-6.106;2023-03-11T02:43:48;2.13;;;1.63;;
58685;SDS011;44465;53.206;-6.106;2023-03-11T02:46:15;1.60;;;1.50;;
58685;SDS011;44465;53.206;-6.106;2023-03-11T02:51:10;1.88;;;1.75;;
58685;SDS011;44465;53.206;-6.106;2023-03-11T02:53:36;2.85;;;1.38;;
58685;SDS011;44465;53.206;-6.106;2023-03-11T02:56:05;1.30;;;1.20;;
58685;SDS011;44465;53.206;-6.106;2023-03-11T02:58:32;1.60;;;1.50;;
58685;SDS011;44465;53.206;-6.106;2023-03-11T03:00:58;1.55;;;1.20;;
58685;SDS011;44465;53.206;-6.106;2023-03-11T03:03:24;1.50;;;1.33;;
58685;SDS011;44465;53.206;-6.106;2023-03-11T03:05:49;1.98;;;1.40;;
58685;SDS011;44465;53.206;-6.106;2023-03-11T03:08:15;1.95;;;1.50;;
58685;SDS011;44465;53.206;-6.106;2023-03-11T03:10:41;2.17;;;1.08;;
58685;SDS011;44465;53.206;-6.106;2023-03-11T03:13:06;1.98;;;1.20;;
58685;SDS011;44465;53.206;-6.106;2023-03-11T03:15:32;1.50;;;1.40;;
58685;SDS011;44465;53.206;-6.106;2023-03-11T03:17:58;1.58;;;1.08;;
58685;SDS011;44465;53.206;-6.106;2023-03-11T03:20:24;1.27;;;1.20;;
58685;SDS011;44465;53.206;-6.106;2023-03-11T03:22:54;1.40;;;1.30;;
58685;SDS011;44465;53.206;-6.106;2023-03-11T03:25:24;1.52;;;1.10;;
58685;SDS011;44465;53.206;-6.106;2023-03-11T03:27:50;1.23;;;1.13;;
58685;SDS011;44465;53.206;-6.106;2023-03-11T03:30:16;1.35;;;1.13;;
58685;SDS011;44465;53.206;-6.106;2023-03-11T03:32:42;1.15;;;1.05;;
58685;SDS011;44465;53.206;-6.106;2023-03-11T03:35:11;1.17;;;1.00;;
58685;SDS011;44465;53.206;-6.106;2023-03-11T03:38:03;1.20;;;1.05;;
58685;SDS011;44465;53.206;-6.106;2023-03-11T03:40:28;1.05;;;0.95;;
58685;SDS011;44465;53.206;-6.106;2023-03-11T03:42:57;1.10;;;1.10;;
58685;SDS011;44465;53.206;-6.106;2023-03-11T03:45:23;1.38;;;1.00;;
58685;SDS011;44465;53.206;-6.106;2023-03-11T03:47:51;1.25;;;1.15;;
58685;SDS011;44465;53.206;-6.106;2023-03-11T03:50:18;1.05;;;0.98;;
58685;SDS011;44465;53.206;-6.106;2023-03-11T03:52:46;1.52;;;1.30;;
58685;SDS011;44465;53.206;-6.106;2023-03-11T03:55:12;1.25;;;0.95;;
58685;SDS011;44465;53.206;-6.106;2023-03-11T03:57:37;1.63;;;1.00;;
58685;SDS011;44465;53.206;-6.106;2023-03-11T04:00:04;0.88;;;0.88;;
58685;SDS011;44465;53.206;-6.106;2023-03-11T04:02:38;1.55;;;1.00;;
58685;SDS011;44465;53.206;-6.106;2023-03-11T04:05:05;0.93;;;0.93;;
58685;SDS011;44465;53.206;-6.106;2023-03-11T04:07:35;2.53;;;1.00;;
58685;SDS011;44465;53.206;-6.106;2023-03-11T04:10:03;1.20;;;1.10;;
58685;SDS011;44465;53.206;-6.106;2023-03-11T04:12:30;1.30;;;1.10;;
58685;SDS011;44465;53.206;-6.106;2023-03-11T04:14:56;1.48;;;1.02;;
58685;SDS011;44465;53.206;-6.106;2023-03-11T04:17:22;1.45;;;0.95;;
58685;SDS011;44465;53.206;-6.106;2023-03-11T04:19:48;2.28;;;0.90;;
58685;SDS011;44465;53.206;-6.106;2023-03-11T04:22:14;1.13;;;0.90;;
58685;SDS011;44465;53.206;-6.106;2023-03-11T04:24:40;1.17;;;0.82;;
58685;SDS011;44465;53.206;-6.106;2023-03-11T04:27:05;0.85;;;0.77;;
58685;SDS011;44465;53.206;-6.106;2023-03-11T04:29:31;2.28;;;1.02;;
58685;SDS011;44465;53.206;-6.106;2023-03-11T04:31:57;1.00;;;0.90;;
58685;SDS011;44465;53.206;-6.106;2023-03-11T04:34:23;0.80;;;0.80;;
58685;SDS011;44465;53.206;-6.106;2023-03-11T04:36:53;2.58;;;1.00;;
58685;SDS011;44465;53.206;-6.106;2023-03-11T04:39:22;1.48;;;0.73;;
58685;SDS011;44465;53.206;-6.106;2023-03-11T04:41:49;1.08;;;1.00;;
58685;SDS011;44465;53.206;-6.106;2023-03-11T04:44:18;1.38;;;0.80;;
58685;SDS011;44465;53.206;-6.106;2023-03-11T04:46:44;1.02;;;0.90;;
58685;SDS011;44465;53.206;-6.106;2023-03-11T04:49:09;1.20;;;0.70;;
58685;SDS011;44465;53.206;-6.106;2023-03-11T04:51:35;0.70;;;0.70;;
58685;SDS011;44465;53.206;-6.106;2023-03-11T04:54:02;0.95;;;0.80;;
58685;SDS011;44465;53.206;-6.106;2023-03-11T04:56:29;0.70;;;0.65;;
58685;SDS011;44465;53.206;-6.106;2023-03-11T04:58:54;0.85;;;0.70;;
58685;SDS011;44465;53.206;-6.106;2023-03-11T05:03:48;0.80;;;0.80;;
58685;SDS011;44465;53.206;-6.106;2023-03-11T05:06:14;0.70;;;0.70;;
58685;SDS011;44465;53.206;-6.106;2023-03-11T05:08:40;0.60;;;0.60;;
58685;SDS011;44465;53.206;-6.106;2023-03-11T05:11:06;0.80;;;0.75;;
58685;SDS011;44465;53.206;-6.106;2023-03-11T05:13:33;1.95;;;0.73;;
58685;SDS011;44465;53.206;-6.106;2023-03-11T05:15:58;1.42;;;0.65;;
58685;SDS011;44465;53.206;-6.106;2023-03-11T05:18:24;0.93;;;0.80;;
58685;SDS011;44465;53.206;-6.106;2023-03-11T05:20:50;0.70;;;0.70;;
58685;SDS011;44465;53.206;-6.106;2023-03-11T05:23:19;0.65;;;0.65;;
58685;SDS011;44465;53.206;-6.106;2023-03-11T05:25:45;1.10;;;0.65;;
58685;SDS011;44465;53.206;-6.106;2023-03-11T05:28:10;0.95;;;0.77;;
58685;SDS011;44465;53.206;-6.106;2023-03-11T05:30:41;0.93;;;0.70;;
58685;SDS011;44465;53.206;-6.106;2023-03-11T05:33:07;0.70;;;0.70;;
58685;SDS011;44465;53.206;-6.106;2023-03-11T05:35:34;0.75;;;0.70;;
58685;SDS011;44465;53.206;-6.106;2023-03-11T05:38:00;1.05;;;0.70;;
58685;SDS011;44465;53.206;-6.106;2023-03-11T05:40:27;0.60;;;0.60;;
58685;SDS011;44465;53.206;-6.106;2023-03-11T05:42:53;1.58;;;0.73;;
58685;SDS011;44465;53.206;-6.106;2023-03-11T05:45:18;1.08;;;0.95;;
58685;SDS011;44465;53.206;-6.106;2023-03-11T05:47:47;0.95;;;0.73;;
58685;SDS011;44465;53.206;-6.106;2023-03-11T05:50:14;0.50;;;0.50;;
58685;SDS011;44465;53.206;-6.106;2023-03-11T05:52:42;1.42;;;0.60;;
58685;SDS011;44465;53.206;-6.106;2023-03-11T05:55:07;0.47;;;0.47;;
58685;SDS011;44465;53.206;-6.106;2023-03-11T05:57:37;0.93;;;0.73;;
58685;SDS011;44465;53.206;-6.106;2023-03-11T06:00:04;1.70;;;0.80;;
58685;SDS011;44465;53.206;-6.106;2023-03-11T06:02:38;0.60;;;0.60;;
58685;SDS011;44465;53.206;-6.106;2023-03-11T06:05:07;0.55;;;0.55;;
58685;SDS011;44465;53.206;-6.106;2023-03-11T06:07:34;1.02;;;0.90;;
58685;SDS011;44465;53.206;-6.106;2023-03-11T06:10:01;1.35;;;0.60;;
58685;SDS011;44465;53.206;-6.106;2023-03-11T06:12:32;0.70;;;0.55;;
58685;SDS011;44465;53.206;-6.106;2023-03-11T06:15:21;0.50;;;0.50;;
58685;SDS011;44465;53.206;-6.106;2023-03-11T06:17:47;0.93;;;0.60;;
58685;SDS011;44465;53.206;-6.106;2023-03-11T06:20:13;0.98;;;0.70;;
58685;SDS011;44465;53.206;-6.106;2023-03-11T06:22:39;1.48;;;0.70;;
58685;SDS011;44465;53.206;-6.106;2023-03-11T06:25:05;0.50;;;0.50;;
58685;SDS011;44465;53.206;-6.106;2023-03-11T06:27:32;0.60;;;0.55;;
58685;SDS011;44465;53.206;-6.106;2023-03-11T06:29:57;0.70;;;0.68;;
58685;SDS011;44465;53.206;-6.106;2023-03-11T06:32:24;0.50;;;0.50;;
58685;SDS011;44465;53.206;-6.106;2023-03-11T06:34:50;0.65;;;0.65;;
58685;SDS011;44465;53.206;-6.106;2023-03-11T06:37:17;0.40;;;0.40;;
58685;SDS011;44465;53.206;-6.106;2023-03-11T06:39:43;0.60;;;0.60;;
58685;SDS011;44465;53.206;-6.106;2023-03-11T06:42:13;0.73;;;0.73;;
58685;SDS011;44465;53.206;-6.106;2023-03-11T06:44:40;1.00;;;0.80;;
58685;SDS011;44465;53.206;-6.106;2023-03-11T06:47:06;0.80;;;0.80;;
58685;SDS011;44465;53.206;-6.106;2023-03-11T06:49:32;0.70;;;0.70;;
58685;SDS011;44465;53.206;-6.106;2023-03-11T06:51:57;0.55;;;0.55;;
58685;SDS011;44465;53.206;-6.106;2023-03-11T06:54:23;0.63;;;0.63;;
58685;SDS011;44465;53.206;-6.106;2023-03-11T06:56:49;1.55;;;0.77;;
58685;SDS011;44465;53.206;-6.106;2023-03-11T06:59:15;1.23;;;0.52;;
58685;SDS011;44465;53.206;-6.106;2023-03-11T07:01:40;0.70;;;0.68;;
58685;SDS011;44465;53.206;-6.106;2023-03-11T07:04:08;1.20;;;0.57;;
58685;SDS011;44465;53.206;-6.106;2023-03-11T07:06:36;0.70;;;0.70;;
58685;SDS011;44465;53.206;-6.106;2023-03-11T07:09:06;0.40;;;0.40;;
58685;SDS011;44465;53.206;-6.106;2023-03-11T07:14:06;1.63;;;0.60;;
58685;SDS011;44465;53.206;-6.106;2023-03-11T07:16:37;0.85;;;0.75;;
58685;SDS011;44465;53.206;-6.106;2023-03-11T07:19:08;1.70;;;0.50;;
58685;SDS011;44465;53.206;-6.106;2023-03-11T07:21:33;0.63;;;0.52;;
58685;SDS011;44465;53.206;-6.106;2023-03-11T07:24:00;0.50;;;0.50;;
58685;SDS011;44465;53.206;-6.106;2023-03-11T07:26:26;1.13;;;0.60;;
58685;SDS011;44465;53.206;-6.106;2023-03-11T07:28:53;0.82;;;0.45;;
58685;SDS011;44465;53.206;-6.106;2023-03-11T07:31:27;0.68;;;0.68;;
58685;SDS011;44465;53.206;-6.106;2023-03-11T07:33:55;0.50;;;0.50;;
58685;SDS011;44465;53.206;-6.106;2023-03-11T07:36:22;0.75;;;0.57;;
58685;SDS011;44465;53.206;-6.106;2023-03-11T07:38:53;0.50;;;0.50;;
58685;SDS011;44465;53.206;-6.106;2023-03-11T07:41:28;0.52;;;0.52;;
58685;SDS011;44465;53.206;-6.106;2023-03-11T07:43:56;0.50;;;0.50;;
58685;SDS011;44465;53.206;-6.106;2023-03-11T07:46:24;0.95;;;0.95;;
58685;SDS011;44465;53.206;-6.106;2023-03-11T07:48:50;1.17;;;0.50;;
58685;SDS011;44465;53.206;-6.106;2023-03-11T07:51:26;0.80;;;0.68;;
58685;SDS011;44465;53.206;-6.106;2023-03-11T07:53:55;0.65;;;0.65;;
58685;SDS011;44465;53.206;-6.106;2023-03-11T07:56:23;0.68;;;0.68;;
58685;SDS011;44465;53.206;-6.106;2023-03-11T07:58:50;0.52;;;0.52;;
58685;SDS011;44465;53.206;-6.106;2023-03-11T08:01:18;1.52;;;0.85;;
58685;SDS011;44465;53.206;-6.106;2023-03-11T08:03:46;1.15;;;0.75;;
58685;SDS011;44465;53.206;-6.106;2023-03-11T08:06:20;1.10;;;0.73;;
58685;SDS011;44465;53.206;-6.106;2023-03-11T08:08:48;0.73;;;0.73;;
58685;SDS011;44465;53.206;-6.106;2023-03-11T08:11:14;1.30;;;0.52;;
58685;SDS011;44465;53.206;-6.106;2023-03-11T08:13:41;0.80;;;0.80;;
58685;SDS011;44465;53.206;-6.106;2023-03-11T08:16:09;0.98;;;0.57;;
58685;SDS011;44465;53.206;-6.106;2023-03-11T08:18:37;0.70;;;0.70;;
58685;SDS011;44465;53.206;-6.106;2023-03-11T08:21:03;1.15;;;0.80;;
58685;SDS011;44465;53.206;-6.106;2023-03-11T08:23:48;0.52;;;0.52;;
58685;SDS011;44465;53.206;-6.106;2023-03-11T08:26:16;2.10;;;0.68;;
58685;SDS011;44465;53.206;-6.106;2023-03-11T08:31:27;0.50;;;0.50;;
58685;SDS011;44465;53.206;-6.106;2023-03-11T08:33:57;0.65;;;0.47;;
58685;SDS011;44465;53.206;-6.106;2023-03-11T08:36:25;1.10;;;0.70;;
58685;SDS011;44465;53.206;-6.106;2023-03-11T08:38:51;1.00;;;0.55;;
58685;SDS011;44465;53.206;-6.106;2023-03-11T08:41:17;0.60;;;0.50;;
58685;SDS011;44465;53.206;-6.106;2023-03-11T08:43:44;1.30;;;0.50;;
58685;SDS011;44465;53.206;-6.106;2023-03-11T08:46:13;0.52;;;0.52;;
58685;SDS011;44465;53.206;-6.106;2023-03-11T08:48:42;0.50;;;0.50;;
58685;SDS011;44465;53.206;-6.106;2023-03-11T08:51:08;1.65;;;0.70;;
58685;SDS011;44465;53.206;-6.106;2023-03-11T08:53:36;0.50;;;0.50;;
58685;SDS011;44465;53.206;-6.106;2023-03-11T08:56:02;0.60;;;0.55;;
58685;SDS011;44465;53.206;-6.106;2023-03-11T08:58:27;0.60;;;0.60;;
58685;SDS011;44465;53.206;-6.106;2023-03-11T09:00:54;2.00;;;0.60;;
58685;SDS011;44465;53.206;-6.106;2023-03-11T09:03:19;0.50;;;0.47;;
58685;SDS011;44465;53.206;-6.106;2023-03-11T09:05:45;1.00;;;0.50;;
58685;SDS011;44465;53.206;-6.106;2023-03-11T09:08:10;0.77;;;0.30;;
58685;SDS011;44465;53.206;-6.106;2023-03-11T09:10:36;0.50;;;0.50;;
58685;SDS011;44465;53.206;-6.106;2023-03-11T09:13:01;0.80;;;0.70;;
58685;SDS011;44465;53.206;-6.106;2023-03-11T09:15:27;0.52;;;0.52;;
58685;SDS011;44465;53.206;-6.106;2023-03-11T09:17:52;0.47;;;0.47;;
58685;SDS011;44465;53.206;-6.106;2023-03-11T09:20:18;0.68;;;0.50;;
58685;SDS011;44465;53.206;-6.106;2023-03-11T09:22:44;0.55;;;0.55;;
58685;SDS011;44465;53.206;-6.106;2023-03-11T09:25:11;0.57;;;0.57;;
58685;SDS011;44465;53.206;-6.106;2023-03-11T09:27:37;0.65;;;0.50;;
58685;SDS011;44465;53.206;-6.106;2023-03-11T09:30:03;0.50;;;0.50;;
58685;SDS011;44465;53.206;-6.106;2023-03-11T09:32:29;0.40;;;0.40;;
58685;SDS011;44465;53.206;-6.106;2023-03-11T09:34:55;0.85;;;0.50;;
58685;SDS011;44465;53.206;-6.106;2023-03-11T09:37:21;0.60;;;0.60;;
58685;SDS011;44465;53.206;-6.106;2023-03-11T09:39:47;0.68;;;0.65;;
58685;SDS011;44465;53.206;-6.106;2023-03-11T09:42:16;1.17;;;0.70;;
58685;SDS011;44465;53.206;-6.106;2023-03-11T09:47:28;0.40;;;0.40;;
58685;SDS011;44465;53.206;-6.106;2023-03-11T09:58:06;0.73;;;0.70;;
58685;SDS011;44465;53.206;-6.106;2023-03-11T10:00:37;0.80;;;0.70;;
58685;SDS011;44465;53.206;-6.106;2023-03-11T10:03:04;0.75;;;0.60;;
58685;SDS011;44465;53.206;-6.106;2023-03-11T10:05:36;1.08;;;0.70;;
58685;SDS011;44465;53.206;-6.106;2023-03-11T10:10:50;0.60;;;0.55;;
58685;SDS011;44465;53.206;-6.106;2023-03-11T10:13:29;0.52;;;0.52;;
58685;SDS011;44465;53.206;-6.106;2023-03-11T10:21:11;0.43;;;0.43;;
58685;SDS011;44465;53.206;-6.106;2023-03-11T10:26:24;0.55;;;0.50;;
58685;SDS011;44465;53.206;-6.106;2023-03-11T10:31:42;0.50;;;0.50;;
58685;SDS011;44465;53.206;-6.106;2023-03-11T10:34:19;0.63;;;0.63;;
58685;SDS011;44465;53.206;-6.106;2023-03-11T10:37:03;0.65;;;0.60;;
58685;SDS011;44465;53.206;-6.106;2023-03-11T10:39:33;0.55;;;0.55;;
58685;SDS011;44465;53.206;-6.106;2023-03-11T10:42:00;0.80;;;0.70;;
58685;SDS011;44465;53.206;-6.106;2023-03-11T10:44:28;0.50;;;0.50;;
58685;SDS011;44465;53.206;-6.106;2023-03-11T10:47:05;0.50;;;0.50;;
58685;SDS011;44465;53.206;-6.106;2023-03-11T10:49:39;0.75;;;0.70;;
58685;SDS011;44465;53.206;-6.106;2023-03-11T10:52:05;1.00;;;0.73;;
58685;SDS011;44465;53.206;-6.106;2023-03-11T10:54:32;0.57;;;0.50;;
58685;SDS011;44465;53.206;-6.106;2023-03-11T10:57:02;1.67;;;0.57;;
58685;SDS011;44465;53.206;-6.106;2023-03-11T10:59:48;0.70;;;0.60;;
58685;SDS011;44465;53.206;-6.106;2023-03-11T11:07:42;1.40;;;0.68;;
58685;SDS011;44465;53.206;-6.106;2023-03-11T11:15:31;1.08;;;0.60;;
58685;SDS011;44465;53.206;-6.106;2023-03-11T11:18:02;1.70;;;0.70;;
58685;SDS011;44465;53.206;-6.106;2023-03-11T11:20:39;1.20;;;0.60;;
58685;SDS011;44465;53.206;-6.106;2023-03-11T11:23:48;1.23;;;0.60;;
58685;SDS011;44465;53.206;-6.106;2023-03-11T11:26:22;0.95;;;0.70;;
58685;SDS011;44465;53.206;-6.106;2023-03-11T11:31:47;2.15;;;0.95;;
58685;SDS011;44465;53.206;-6.106;2023-03-11T11:34:34;1.23;;;0.50;;
58685;SDS011;44465;53.206;-6.106;2023-03-11T11:37:02;1.10;;;0.75;;
58685;SDS011;44465;53.206;-6.106;2023-03-11T11:39:31;0.80;;;0.80;;
58685;SDS011;44465;53.206;-6.106;2023-03-11T11:42:04;1.35;;;0.70;;
58685;SDS011;44465;53.206;-6.106;2023-03-11T11:44:31;0.85;;;0.70;;
58685;SDS011;44465;53.206;-6.106;2023-03-11T11:47:01;0.47;;;0.47;;
58685;SDS011;44465;53.206;-6.106;2023-03-11T11:49:30;0.60;;;0.60;;
58685;SDS011;44465;53.206;-6.106;2023-03-11T11:57:08;0.93;;;0.70;;
58685;SDS011;44465;53.206;-6.106;2023-03-11T11:59:36;0.60;;;0.60;;
58685;SDS011;44465;53.206;-6.106;2023-03-11T12:22:30;0.70;;;0.70;;
58685;SDS011;44465;53.206;-6.106;2023-03-11T12:27:24;0.60;;;0.43;;
58685;SDS011;44465;53.206;-6.106;2023-03-11T12:29:54;0.60;;;0.60;;
58685;SDS011;44465;53.206;-6.106;2023-03-11T12:32:36;0.60;;;0.60;;
58685;SDS011;44465;53.206;-6.106;2023-03-11T12:35:17;0.70;;;0.65;;
58685;SDS011;44465;53.206;-6.106;2023-03-11T12:37:46;0.63;;;0.63;;
58685;SDS011;44465;53.206;-6.106;2023-03-11T12:46:10;0.80;;;0.80;;
58685;SDS011;44465;53.206;-6.106;2023-03-11T12:53:50;0.77;;;0.77;;
58685;SDS011;44465;53.206;-6.106;2023-03-11T13:01:23;0.90;;;0.90;;
58685;SDS011;44465;53.206;-6.106;2023-03-11T13:04:18;0.88;;;0.88;;
58685;SDS011;44465;53.206;-6.106;2023-03-11T13:12:41;0.60;;;0.60;;
58685;SDS011;44465;53.206;-6.106;2023-03-11T13:23:19;0.60;;;0.60;;
58685;SDS011;44465;53.206;-6.106;2023-03-11T13:33:59;0.68;;;0.68;;
58685;SDS011;44465;53.206;-6.106;2023-03-11T13:41:41;1.13;;;0.80;;
58685;SDS011;44465;53.206;-6.106;2023-03-11T13:46:43;0.80;;;0.80;;
58685;SDS011;44465;53.206;-6.106;2023-03-11T13:51:41;0.65;;;0.65;;
58685;SDS011;44465;53.206;-6.106;2023-03-11T13:57:00;0.70;;;0.70;;
58685;SDS011;44465;53.206;-6.106;2023-03-11T13:59:30;1.02;;;0.90;;
58685;SDS011;44465;53.206;-6.106;2023-03-11T14:04:32;0.93;;;0.85;;
58685;SDS011;44465;53.206;-6.106;2023-03-11T14:07:10;0.57;;;0.57;;
58685;SDS011;44465;53.206;-6.106;2023-03-11T14:09:38;0.70;;;0.70;;
58685;SDS011;44465;53.206;-6.106;2023-03-11T14:12:03;1.10;;;1.00;;
58685;SDS011;44465;53.206;-6.106;2023-03-11T14:14:46;0.90;;;0.80;;
58685;SDS011;44465;53.206;-6.106;2023-03-11T14:17:17;1.00;;;0.90;;
58685;SDS011;44465;53.206;-6.106;2023-03-11T14:20:04;1.02;;;0.90;;
58685;SDS011;44465;53.206;-6.106;2023-03-11T14:22:52;0.90;;;0.90;;
58685;SDS011;44465;53.206;-6.106;2023-03-11T14:27:53;1.20;;;1.10;;
58685;SDS011;44465;53.206;-6.106;2023-03-11T14:30:26;1.10;;;0.95;;
58685;SDS011;44465;53.206;-6.106;2023-03-11T14:33:03;1.73;;;1.08;;
58685;SDS011;44465;53.206;-6.106;2023-03-11T14:35:56;1.30;;;1.13;;
58685;SDS011;44465;53.206;-6.106;2023-03-11T14:38:27;1.10;;;1.00;;
58685;SDS011;44465;53.206;-6.106;2023-03-11T14:40:55;1.38;;;1.13;;
58685;SDS011;44465;53.206;-6.106;2023-03-11T14:43:23;1.23;;;1.05;;
58685;SDS011;44465;53.206;-6.106;2023-03-11T14:45:50;1.05;;;0.93;;
58685;SDS011;44465;53.206;-6.106;2023-03-11T14:48:25;1.27;;;1.08;;
58685;SDS011;44465;53.206;-6.106;2023-03-11T14:50:55;0.88;;;0.80;;
58685;SDS011;44465;53.206;-6.106;2023-03-11T14:53:45;1.00;;;1.00;;
58685;SDS011;44465;53.206;-6.106;2023-03-11T14:56:14;1.35;;;1.10;;
58685;SDS011;44465;53.206;-6.106;2023-03-11T14:58:51;1.17;;;1.17;;
58685;SDS011;44465;53.206;-6.106;2023-03-11T15:01:27;1.33;;;1.05;;
58685;SDS011;44465;53.206;-6.106;2023-03-11T15:04:13;1.08;;;1.02;;
58685;SDS011;44465;53.206;-6.106;2023-03-11T15:06:59;1.05;;;0.95;;
58685;SDS011;44465;53.206;-6.106;2023-03-11T15:09:26;1.15;;;0.85;;
58685;SDS011;44465;53.206;-6.106;2023-03-11T15:11:54;1.20;;;1.10;;
58685;SDS011;44465;53.206;-6.106;2023-03-11T15:17:09;1.02;;;1.00;;
58685;SDS011;44465;53.206;-6.106;2023-03-11T15:19:38;1.67;;;1.20;;
58685;SDS011;44465;53.206;-6.106;2023-03-11T15:22:05;1.23;;;1.15;;
58685;SDS011;44465;53.206;-6.106;2023-03-11T15:24:56;1.50;;;1.40;;
58685;SDS011;44465;53.206;-6.106;2023-03-11T15:29:51;1.05;;;0.93;;
58685;SDS011;44465;53.206;-6.106;2023-03-11T15:34:58;1.17;;;1.08;;
58685;SDS011;44465;53.206;-6.106;2023-03-11T15:37:36;1.15;;;1.05;;
58685;SDS011;44465;53.206;-6.106;2023-03-11T15:45:56;1.30;;;1.20;;
58685;SDS011;44465;53.206;-6.106;2023-03-11T15:48:24;1.35;;;1.10;;
58685;SDS011;44465;53.206;-6.106;2023-03-11T15:50:55;1.35;;;1.20;;
58685;SDS011;44465;53.206;-6.106;2023-03-11T15:53:23;1.60;;;1.20;;
58685;SDS011;44465;53.206;-6.106;2023-03-11T15:55:50;1.65;;;1.23;;
58685;SDS011;44465;53.206;-6.106;2023-03-11T15:58:18;1.77;;;1.20;;
58685;SDS011;44465;53.206;-6.106;2023-03-11T16:00:46;1.42;;;1.33;;
58685;SDS011;44465;53.206;-6.106;2023-03-11T16:03:16;1.15;;;1.05;;
58685;SDS011;44465;53.206;-6.106;2023-03-11T16:05:41;1.52;;;1.13;;
58685;SDS011;44465;53.206;-6.106;2023-03-11T16:08:07;1.85;;;1.20;;
58685;SDS011;44465;53.206;-6.106;2023-03-11T16:10:33;1.75;;;1.65;;
58685;SDS011;44465;53.206;-6.106;2023-03-11T16:12:58;1.10;;;1.00;;
58685;SDS011;44465;53.206;-6.106;2023-03-11T16:15:31;1.75;;;1.30;;
58685;SDS011;44465;53.206;-6.106;2023-03-11T16:18:00;2.42;;;1.50;;
58685;SDS011;44465;53.206;-6.106;2023-03-11T16:20:28;1.45;;;1.35;;
58685;SDS011;44465;53.206;-6.106;2023-03-11T16:23:01;1.10;;;1.05;;
58685;SDS011;44465;53.206;-6.106;2023-03-11T16:25:33;1.30;;;1.20;;
58685;SDS011;44465;53.206;-6.106;2023-03-11T16:28:02;2.17;;;1.52;;
58685;SDS011;44465;53.206;-6.106;2023-03-11T16:30:29;1.40;;;1.30;;
58685;SDS011;44465;53.206;-6.106;2023-03-11T16:32:55;1.80;;;1.67;;
58685;SDS011;44465;53.206;-6.106;2023-03-11T16:35:21;1.65;;;1.20;;
58685;SDS011;44465;53.206;-6.106;2023-03-11T16:37:47;1.38;;;1.27;;
58685;SDS011;44465;53.206;-6.106;2023-03-11T16:40:14;1.60;;;1.40;;
58685;SDS011;44465;53.206;-6.106;2023-03-11T16:42:41;1.25;;;1.13;;
58685;SDS011;44465;53.206;-6.106;2023-03-11T16:45:08;1.48;;;1.38;;
58685;SDS011;44465;53.206;-6.106;2023-03-11T16:47:35;1.20;;;1.10;;
58685;SDS011;44465;53.206;-6.106;2023-03-11T16:50:00;2.15;;;1.38;;
58685;SDS011;44465;53.206;-6.106;2023-03-11T16:52:26;1.33;;;1.23;;
58685;SDS011;44465;53.206;-6.106;2023-03-11T16:54:51;1.10;;;1.00;;
58685;SDS011;44465;53.206;-6.106;2023-03-11T16:57:17;1.40;;;1.27;;
58685;SDS011;44465;53.206;-6.106;2023-03-11T16:59:42;1.23;;;1.13;;
58685;SDS011;44465;53.206;-6.106;2023-03-11T17:02:09;1.17;;;1.10;;
58685;SDS011;44465;53.206;-6.106;2023-03-11T17:04:35;2.30;;;1.52;;
58685;SDS011;44465;53.206;-6.106;2023-03-11T17:07:02;1.48;;;1.00;;
58685;SDS011;44465;53.206;-6.106;2023-03-11T17:09:29;1.10;;;1.05;;
58685;SDS011;44465;53.206;-6.106;2023-03-11T17:11:55;1.23;;;1.13;;
58685;SDS011;44465;53.206;-6.106;2023-03-11T17:14:21;1.38;;;1.20;;
58685;SDS011;44465;53.206;-6.106;2023-03-11T17:16:48;1.17;;;1.08;;
58685;SDS011;44465;53.206;-6.106;2023-03-11T17:19:13;1.30;;;1.17;;
58685;SDS011;44465;53.206;-6.106;2023-03-11T17:21:39;1.10;;;1.00;;
58685;SDS011;44465;53.206;-6.106;2023-03-11T17:24:05;1.50;;;1.23;;